createdAt,value
2022-07-31T00:00:22.085Z,20.69
2022-07-31T00:02:51.881Z,20.67
2022-07-31T00:05:21.837Z,20.65
2022-07-31T00:07:51.920Z,20.67
2022-07-31T00:10:21.731Z,20.66
2022-07-31T00:12:54.620Z,20.63
2022-07-31T00:15:24.725Z,20.65
2022-07-31T00:17:54.481Z,20.66
2022-07-31T00:20:24.250Z,20.64
2022-07-31T00:22:54.963Z,20.65
2022-07-31T00:25:24.701Z,20.65
2022-07-31T00:27:57.031Z,20.62
2022-07-31T00:30:26.968Z,20.62
2022-07-31T00:32:56.676Z,20.67
2022-07-31T00:35:26.592Z,20.67
2022-07-31T00:38:24.785Z,20.68
2022-07-31T00:40:50.386Z,20.65
2022-07-31T00:43:22.679Z,20.62
2022-07-31T00:45:59.141Z,20.62
2022-07-31T00:48:29.835Z,20.62
2022-07-31T00:50:59.878Z,20.61
2022-07-31T00:53:29.615Z,20.59
2022-07-31T00:55:59.940Z,20.58
2022-07-31T00:58:32.367Z,20.57
2022-07-31T01:01:02.111Z,20.58
2022-07-31T01:03:31.896Z,20.55
2022-07-31T01:06:01.851Z,20.53
2022-07-31T01:08:31.786Z,20.52
2022-07-31T01:11:08.316Z,20.50
2022-07-31T01:13:49.418Z,20.50
2022-07-31T01:16:21.249Z,20.48
2022-07-31T01:18:52.542Z,20.51
2022-07-31T01:21:30.227Z,20.48
2022-07-31T01:24:30.084Z,20.47
2022-07-31T01:27:04.965Z,20.44
2022-07-31T01:29:43.782Z,20.42
2022-07-31T01:32:17.840Z,20.43
2022-07-31T01:34:55.622Z,20.40
2022-07-31T01:37:30.474Z,20.39
2022-07-31T01:40:06.284Z,20.40
2022-07-31T01:42:39.619Z,20.39
2022-07-31T01:45:14.510Z,20.40
2022-07-31T01:47:45.944Z,20.38
2022-07-31T01:50:42.483Z,20.39
2022-07-31T01:53:06.768Z,20.40
2022-07-31T01:56:03.796Z,20.38
2022-07-31T01:58:30.641Z,20.39
2022-07-31T02:01:05.900Z,20.36
2022-07-31T02:03:44.510Z,20.35
2022-07-31T02:06:17.760Z,20.36
2022-07-31T02:08:49.072Z,20.36
2022-07-31T02:11:21.658Z,20.36
2022-07-31T02:13:53.407Z,20.37
2022-07-31T02:16:27.593Z,20.37
2022-07-31T02:19:00.248Z,20.38
2022-07-31T02:21:30.195Z,20.37
2022-07-31T02:24:00.241Z,20.38
2022-07-31T02:26:32.231Z,20.38
2022-07-31T02:29:02.953Z,20.37
2022-07-31T02:31:37.918Z,20.35
2022-07-31T02:34:08.049Z,20.37
2022-07-31T02:36:38.845Z,20.37
2022-07-31T02:39:09.292Z,20.33
2022-07-31T02:41:39.361Z,20.32
2022-07-31T02:44:09.382Z,20.30
2022-07-31T02:46:42.509Z,20.32
2022-07-31T02:49:14.023Z,20.32
2022-07-31T02:51:44.474Z,20.32
2022-07-31T02:54:16.033Z,20.31
2022-07-31T02:56:46.823Z,20.30
2022-07-31T02:59:16.552Z,20.30
2022-07-31T03:01:48.891Z,20.29
2022-07-31T03:04:18.673Z,20.28
2022-07-31T03:06:48.710Z,20.25
2022-07-31T03:09:18.482Z,20.22
2022-07-31T03:11:48.232Z,20.23
2022-07-31T03:14:18.950Z,20.24
2022-07-31T03:16:52.855Z,20.26
2022-07-31T03:19:23.912Z,20.27
2022-07-31T03:21:54.378Z,20.29
2022-07-31T03:24:24.092Z,20.29
2022-07-31T03:26:53.821Z,20.29
2022-07-31T03:29:41.721Z,20.27
2022-07-31T03:32:15.854Z,20.25
2022-07-31T03:34:45.557Z,20.26
2022-07-31T03:37:15.889Z,20.25
2022-07-31T03:39:45.629Z,20.22
2022-07-31T03:42:18.884Z,20.19
2022-07-31T03:44:50.483Z,20.19
2022-07-31T03:47:22.823Z,20.16
2022-07-31T03:49:52.744Z,20.15
2022-07-31T03:52:22.470Z,20.10
2022-07-31T03:54:52.366Z,20.07
2022-07-31T03:57:27.002Z,20.08
2022-07-31T04:00:00.742Z,20.09
2022-07-31T04:02:33.648Z,20.05
2022-07-31T04:05:08.069Z,20.03
2022-07-31T04:07:39.565Z,20.02
2022-07-31T04:10:10.779Z,20.01
2022-07-31T04:12:40.510Z,20.01
2022-07-31T04:15:10.936Z,20.00
2022-07-31T04:17:43.275Z,20.00
2022-07-31T04:20:14.104Z,19.96
2022-07-31T04:22:43.868Z,19.97
2022-07-31T04:25:13.582Z,19.98
2022-07-31T04:27:48.200Z,19.96
2022-07-31T04:30:18.990Z,19.97
2022-07-31T04:32:51.332Z,19.95
2022-07-31T04:35:22.300Z,19.95
2022-07-31T04:37:52.040Z,19.95
2022-07-31T04:40:21.853Z,19.94
2022-07-31T04:42:51.568Z,19.97
2022-07-31T04:45:21.470Z,19.96
2022-07-31T04:47:53.818Z,19.92
2022-07-31T04:50:23.793Z,19.94
2022-07-31T04:52:53.492Z,19.92
2022-07-31T04:55:24.431Z,19.95
2022-07-31T04:57:54.140Z,19.98
2022-07-31T05:00:24.033Z,20.03
2022-07-31T05:02:56.367Z,20.06
2022-07-31T05:05:26.267Z,20.09
2022-07-31T05:07:55.996Z,20.11
2022-07-31T05:10:38.327Z,20.11
2022-07-31T05:13:08.020Z,20.18
2022-07-31T05:15:37.739Z,20.17
2022-07-31T05:18:10.473Z,20.21
2022-07-31T05:20:40.221Z,20.22
2022-07-31T05:23:09.892Z,20.24
2022-07-31T05:25:39.610Z,20.29
2022-07-31T05:28:09.856Z,20.29
2022-07-31T05:30:39.888Z,20.17
2022-07-31T05:33:12.221Z,20.20
2022-07-31T05:35:43.645Z,20.26
2022-07-31T05:38:13.339Z,20.26
2022-07-31T05:40:43.055Z,20.35
2022-07-31T05:43:13.337Z,20.38
2022-07-31T05:45:43.080Z,20.46
2022-07-31T05:48:15.426Z,20.56
2022-07-31T05:50:45.775Z,20.60
2022-07-31T05:53:16.152Z,20.58
2022-07-31T05:55:46.604Z,20.64
2022-07-31T05:58:17.277Z,20.68
2022-07-31T06:00:48.582Z,20.76
2022-07-31T06:03:27.970Z,20.81
2022-07-31T06:05:58.618Z,20.88
2022-07-31T06:08:29.253Z,20.93
2022-07-31T06:10:59.310Z,20.92
2022-07-31T06:13:30.385Z,20.96
2022-07-31T06:16:00.124Z,21.01
2022-07-31T06:18:32.443Z,21.07
2022-07-31T06:21:02.716Z,21.11
2022-07-31T06:23:32.526Z,21.19
2022-07-31T06:26:02.562Z,21.24
2022-07-31T06:28:48.489Z,21.27
2022-07-31T06:31:20.562Z,21.36
2022-07-31T06:33:53.444Z,21.44
2022-07-31T06:36:23.740Z,21.51
2022-07-31T06:38:53.451Z,21.49
2022-07-31T06:41:35.619Z,21.55
2022-07-31T06:44:05.893Z,21.63
2022-07-31T06:46:35.620Z,21.64
2022-07-31T06:49:09.089Z,21.71
2022-07-31T06:51:39.191Z,21.70
2022-07-31T06:54:11.505Z,21.77
2022-07-31T06:56:42.127Z,21.84
2022-07-31T06:59:11.929Z,21.88
2022-07-31T07:01:41.723Z,21.98
2022-07-31T07:04:14.241Z,22.00
2022-07-31T07:06:44.007Z,22.11
2022-07-31T07:09:13.778Z,22.09
2022-07-31T07:11:43.622Z,22.08
2022-07-31T07:14:13.421Z,22.14
2022-07-31T07:16:43.350Z,22.21
2022-07-31T07:19:15.660Z,22.19
2022-07-31T07:21:45.382Z,22.11
2022-07-31T07:24:15.129Z,22.18
2022-07-31T07:26:44.861Z,22.25
2022-07-31T07:29:14.606Z,22.30
2022-07-31T07:31:44.363Z,22.35
2022-07-31T07:34:16.671Z,22.32
2022-07-31T07:36:46.399Z,22.25
2022-07-31T07:39:16.126Z,22.35
2022-07-31T07:41:45.917Z,22.39
2022-07-31T07:44:15.632Z,22.38
2022-07-31T07:46:45.435Z,22.32
2022-07-31T07:49:17.896Z,22.34
2022-07-31T07:51:58.801Z,22.37
2022-07-31T07:54:37.385Z,22.38
2022-07-31T07:57:07.121Z,22.42
2022-07-31T07:59:36.847Z,22.43
2022-07-31T08:02:06.950Z,22.43
2022-07-31T08:04:39.579Z,22.46
2022-07-31T08:07:09.420Z,22.52
2022-07-31T08:09:40.210Z,22.54
2022-07-31T08:12:10.347Z,22.52
2022-07-31T08:14:40.072Z,22.47
2022-07-31T08:17:14.249Z,22.52
2022-07-31T08:19:50.935Z,22.53
2022-07-31T08:22:21.099Z,22.53
2022-07-31T08:24:50.829Z,22.53
2022-07-31T08:27:39.439Z,22.53
2022-07-31T08:30:11.985Z,22.47
2022-07-31T08:32:41.992Z,22.45
2022-07-31T08:35:15.029Z,22.41
2022-07-31T08:38:01.629Z,22.37
2022-07-31T08:40:42.688Z,22.37
2022-07-31T08:44:00.259Z,22.36
2022-07-31T08:46:05.445Z,22.37
2022-07-31T08:48:35.963Z,22.41
2022-07-31T08:51:09.623Z,22.37
2022-07-31T08:53:40.014Z,22.39
2022-07-31T08:56:12.064Z,22.38
2022-07-31T08:58:41.935Z,22.35
2022-07-31T09:01:14.170Z,22.37
2022-07-31T09:03:43.934Z,22.37
2022-07-31T09:06:16.368Z,22.33
2022-07-31T09:08:46.261Z,22.30
2022-07-31T09:11:18.764Z,22.29
2022-07-31T09:14:14.318Z,22.25
2022-07-31T09:16:51.769Z,22.23
2022-07-31T09:19:52.351Z,22.23
2022-07-31T09:22:22.654Z,22.21
2022-07-31T09:24:52.491Z,22.23
2022-07-31T09:27:22.492Z,22.25
2022-07-31T09:29:52.955Z,22.22
2022-07-31T09:32:23.999Z,22.19
2022-07-31T09:34:53.696Z,22.21
2022-07-31T09:37:28.925Z,22.21
2022-07-31T09:39:59.282Z,22.16
2022-07-31T09:42:39.447Z,22.17
2022-07-31T09:45:23.138Z,22.16
2022-07-31T09:48:08.337Z,22.13
2022-07-31T09:50:38.225Z,22.11
2022-07-31T09:53:10.548Z,22.10
2022-07-31T09:55:40.276Z,22.08
2022-07-31T09:58:09.995Z,22.10
2022-07-31T10:00:40.492Z,22.06
2022-07-31T10:03:10.915Z,22.07
2022-07-31T10:05:40.740Z,22.07
2022-07-31T10:08:14.915Z,22.10
2022-07-31T10:10:46.795Z,22.16
2022-07-31T10:13:18.418Z,22.16
2022-07-31T10:15:50.061Z,22.13
2022-07-31T10:18:36.043Z,22.13
2022-07-31T10:21:09.281Z,22.08
2022-07-31T10:23:44.032Z,22.03
2022-07-31T10:26:14.202Z,21.95
2022-07-31T10:28:44.545Z,21.90
2022-07-31T10:31:15.676Z,21.86
2022-07-31T10:33:47.718Z,21.81
2022-07-31T10:36:22.636Z,21.86
2022-07-31T10:39:04.346Z,21.86
2022-07-31T10:41:49.797Z,21.88
2022-07-31T10:44:26.106Z,21.84
2022-07-31T10:46:56.008Z,21.85
2022-07-31T10:49:44.114Z,21.67
2022-07-31T10:52:15.497Z,21.73
2022-07-31T10:54:49.782Z,21.71
2022-07-31T10:57:26.452Z,21.65
2022-07-31T10:59:56.881Z,21.68
2022-07-31T11:02:34.059Z,21.57
2022-07-31T11:05:11.790Z,21.63
2022-07-31T11:07:43.000Z,21.63
2022-07-31T11:10:21.004Z,21.51
2022-07-31T11:13:02.192Z,21.45
2022-07-31T11:15:31.979Z,21.48
2022-07-31T11:18:25.195Z,21.38
2022-07-31T11:21:17.394Z,21.38
2022-07-31T11:24:02.723Z,21.44
2022-07-31T11:26:41.941Z,21.46
2022-07-31T11:29:59.846Z,21.33
2022-07-31T11:32:15.501Z,21.16
2022-07-31T11:34:53.711Z,21.18
2022-07-31T11:37:43.329Z,21.26
2022-07-31T11:40:17.445Z,21.32
2022-07-31T11:43:10.320Z,21.37
2022-07-31T11:45:49.912Z,21.32
2022-07-31T11:48:20.854Z,21.34
2022-07-31T11:50:52.040Z,21.36
2022-07-31T11:53:24.066Z,21.40
2022-07-31T11:56:04.240Z,21.41
2022-07-31T11:58:36.775Z,21.44
2022-07-31T12:01:08.087Z,21.28
2022-07-31T12:03:40.133Z,21.29
2022-07-31T12:06:11.674Z,21.32
2022-07-31T12:08:42.978Z,21.31
2022-07-31T12:11:14.420Z,21.32
2022-07-31T12:13:48.829Z,21.18
2022-07-31T12:16:19.213Z,21.17
2022-07-31T12:18:50.764Z,21.12
2022-07-31T12:21:21.353Z,21.08
2022-07-31T12:23:53.326Z,21.10
2022-07-31T12:26:27.473Z,21.21
2022-07-31T12:29:05.213Z,21.15
2022-07-31T12:31:47.836Z,21.03
2022-07-31T12:34:29.436Z,21.12
2022-07-31T12:37:04.124Z,21.17
2022-07-31T12:39:50.766Z,21.24
2022-07-31T12:42:30.743Z,21.25
2022-07-31T12:45:18.270Z,21.20
2022-07-31T12:47:52.376Z,21.23
2022-07-31T12:50:22.577Z,21.16
2022-07-31T12:52:52.447Z,21.21
2022-07-31T12:55:22.659Z,21.22
2022-07-31T12:57:52.526Z,21.25
2022-07-31T13:00:26.977Z,21.32
2022-07-31T13:02:58.161Z,21.36
2022-07-31T13:05:29.651Z,21.35
2022-07-31T13:07:59.802Z,21.39
2022-07-31T13:10:32.309Z,21.38
2022-07-31T13:13:02.350Z,21.41
2022-07-31T13:15:34.672Z,21.43
2022-07-31T13:18:05.203Z,21.47
2022-07-31T13:20:35.129Z,21.54
2022-07-31T13:23:05.393Z,21.59
2022-07-31T13:25:35.253Z,21.51
2022-07-31T13:28:04.968Z,21.51
2022-07-31T13:30:37.371Z,21.55
2022-07-31T13:33:07.253Z,21.59
2022-07-31T13:35:37.024Z,21.70
2022-07-31T13:38:06.897Z,21.74
2022-07-31T13:40:49.062Z,21.73
2022-07-31T13:43:18.863Z,21.78
2022-07-31T13:45:51.658Z,21.80
2022-07-31T13:48:21.438Z,21.79
2022-07-31T13:50:51.122Z,21.78
2022-07-31T13:53:20.869Z,21.71
2022-07-31T13:55:50.624Z,21.63
2022-07-31T13:58:20.587Z,21.65
2022-07-31T14:00:54.379Z,21.64
2022-07-31T14:03:24.539Z,21.56
2022-07-31T14:05:56.135Z,21.45
2022-07-31T14:08:33.248Z,21.45
2022-07-31T14:11:16.289Z,21.47
2022-07-31T14:13:46.741Z,21.42
2022-07-31T14:16:19.480Z,21.41
2022-07-31T14:18:49.482Z,21.44
2022-07-31T14:21:19.215Z,21.49
2022-07-31T14:23:49.452Z,21.55
2022-07-31T14:26:19.209Z,21.61
2022-07-31T14:28:49.683Z,21.66
2022-07-31T14:31:22.074Z,21.62
2022-07-31T14:33:51.782Z,21.66
2022-07-31T14:36:21.506Z,21.64
2022-07-31T14:38:51.233Z,21.63
2022-07-31T14:41:21.000Z,21.63
2022-07-31T14:43:50.754Z,21.57
2022-07-31T14:46:23.112Z,21.60
2022-07-31T14:48:52.916Z,21.57
2022-07-31T14:51:23.195Z,21.52
2022-07-31T14:53:52.934Z,21.46
2022-07-31T14:56:39.666Z,21.42
2022-07-31T14:59:12.559Z,21.39
2022-07-31T15:01:45.085Z,21.41
2022-07-31T15:04:14.876Z,21.44
2022-07-31T15:06:56.239Z,21.46
2022-07-31T15:09:34.612Z,21.54
2022-07-31T15:12:04.348Z,21.57
2022-07-31T15:14:34.172Z,21.59
2022-07-31T15:17:06.714Z,21.61
2022-07-31T15:19:36.724Z,21.64
2022-07-31T15:22:11.272Z,21.67
2022-07-31T15:24:49.306Z,21.75
2022-07-31T15:27:21.822Z,21.78
2022-07-31T15:30:04.146Z,21.77
2022-07-31T15:32:41.478Z,21.77
2022-07-31T15:35:14.314Z,21.77
2022-07-31T15:37:46.997Z,21.80
2022-07-31T15:40:17.879Z,21.73
2022-07-31T15:42:50.024Z,21.64
2022-07-31T15:45:22.142Z,21.63
2022-07-31T15:47:54.457Z,21.54
2022-07-31T15:50:24.280Z,21.47
2022-07-31T15:52:53.996Z,21.50
2022-07-31T15:55:23.715Z,21.44
2022-07-31T15:57:53.507Z,21.40
2022-07-31T16:00:23.491Z,21.42
2022-07-31T16:02:55.796Z,21.41
2022-07-31T16:05:36.210Z,21.38
2022-07-31T16:08:29.338Z,21.36
2022-07-31T16:11:00.721Z,21.34
2022-07-31T16:13:31.547Z,21.30
2022-07-31T16:16:01.333Z,21.32
2022-07-31T16:18:33.758Z,21.41
2022-07-31T16:21:03.501Z,21.44
2022-07-31T16:23:33.222Z,21.48
2022-07-31T16:26:02.939Z,21.53
2022-07-31T16:28:32.731Z,21.53
2022-07-31T16:31:02.616Z,21.55
2022-07-31T16:33:35.014Z,21.54
2022-07-31T16:36:04.728Z,21.54
2022-07-31T16:38:34.462Z,21.48
2022-07-31T16:41:04.191Z,21.44
2022-07-31T16:43:50.021Z,21.46
2022-07-31T16:46:21.304Z,21.47
2022-07-31T16:48:53.713Z,21.44
2022-07-31T16:51:23.501Z,21.31
2022-07-31T16:54:13.590Z,21.23
2022-07-31T16:56:42.925Z,21.13
2022-07-31T16:59:12.853Z,21.07
2022-07-31T17:02:00.187Z,21.01
2022-07-31T17:04:33.315Z,20.97
2022-07-31T17:07:03.711Z,21.00
2022-07-31T17:09:33.863Z,21.03
2022-07-31T17:12:04.450Z,21.04
2022-07-31T17:14:34.403Z,21.01
2022-07-31T17:17:04.315Z,20.95
2022-07-31T17:19:45.380Z,21.01
2022-07-31T17:22:17.732Z,21.04
2022-07-31T17:24:51.070Z,21.11
2022-07-31T17:27:22.678Z,21.04
2022-07-31T17:29:52.427Z,21.04
2022-07-31T17:32:22.160Z,21.04
2022-07-31T17:34:54.514Z,21.07
2022-07-31T17:37:24.751Z,21.05
2022-07-31T17:39:57.766Z,21.04
2022-07-31T17:42:28.596Z,21.05
2022-07-31T17:44:59.067Z,21.06
2022-07-31T17:47:30.165Z,21.05
2022-07-31T17:50:02.544Z,21.09
2022-07-31T17:52:32.273Z,21.13
2022-07-31T17:55:02.088Z,21.18
2022-07-31T17:57:33.961Z,21.20
2022-07-31T18:00:04.099Z,21.26
2022-07-31T18:02:34.001Z,21.30
2022-07-31T18:05:06.851Z,21.34
2022-07-31T18:07:37.831Z,21.35
2022-07-31T18:10:09.266Z,21.39
2022-07-31T18:12:57.356Z,21.38
2022-07-31T18:15:35.791Z,21.35
2022-07-31T18:18:06.011Z,21.36
2022-07-31T18:20:38.561Z,21.35
2022-07-31T18:23:10.153Z,21.33
2022-07-31T18:25:40.181Z,21.30
2022-07-31T18:28:09.919Z,21.28
2022-07-31T18:30:41.903Z,21.25
2022-07-31T18:33:13.929Z,21.17
2022-07-31T18:35:46.433Z,21.19
2022-07-31T18:38:17.183Z,21.22
2022-07-31T18:40:47.117Z,21.19
2022-07-31T18:43:16.856Z,21.17
2022-07-31T18:45:46.588Z,21.08
2022-07-31T18:48:16.571Z,21.08
2022-07-31T18:50:59.132Z,21.05
2022-07-31T18:53:33.861Z,21.04
2022-07-31T18:56:03.640Z,21.03
2022-07-31T18:58:33.571Z,21.04
2022-07-31T19:01:03.412Z,21.06
2022-07-31T19:03:33.231Z,21.04
2022-07-31T19:06:05.983Z,21.05
2022-07-31T19:08:35.749Z,20.99
2022-07-31T19:11:05.483Z,21.00
2022-07-31T19:13:35.450Z,20.95
2022-07-31T19:16:05.174Z,20.97
2022-07-31T19:18:36.688Z,20.91
2022-07-31T19:21:23.523Z,20.97
2022-07-31T19:23:59.048Z,20.92
2022-07-31T19:26:28.764Z,20.85
2022-07-31T19:28:58.547Z,20.83
2022-07-31T19:31:28.297Z,20.84
2022-07-31T19:33:58.004Z,20.84
2022-07-31T19:36:30.397Z,20.84
2022-07-31T19:39:00.275Z,20.82
2022-07-31T19:41:30.065Z,20.83
2022-07-31T19:44:02.581Z,20.84
2022-07-31T19:46:32.370Z,20.84
2022-07-31T19:49:02.965Z,20.87
2022-07-31T19:51:35.348Z,20.77
2022-07-31T19:54:05.087Z,20.74
2022-07-31T19:56:34.841Z,20.71
2022-07-31T19:59:05.539Z,20.70
2022-07-31T20:01:35.363Z,20.65
2022-07-31T20:04:05.153Z,20.67
2022-07-31T20:06:39.184Z,20.68
2022-07-31T20:09:08.940Z,20.70
2022-07-31T20:11:38.652Z,20.71
2022-07-31T20:14:08.372Z,20.73
2022-07-31T20:16:38.393Z,20.74
2022-07-31T20:19:08.150Z,20.75
2022-07-31T20:21:40.538Z,20.73
2022-07-31T20:24:11.640Z,20.68
2022-07-31T20:26:41.432Z,20.71
2022-07-31T20:29:11.142Z,20.73
2022-07-31T20:31:40.849Z,20.72
2022-07-31T20:34:10.961Z,20.71
2022-07-31T20:36:43.714Z,20.71
2022-07-31T20:39:13.418Z,20.70
2022-07-31T20:41:43.147Z,20.70
2022-07-31T20:44:12.953Z,20.71
2022-07-31T20:46:42.726Z,20.71
2022-07-31T20:49:19.743Z,20.75
2022-07-31T20:52:08.016Z,20.75
2022-07-31T20:54:38.087Z,20.78
2022-07-31T20:57:08.167Z,20.78
2022-07-31T20:59:37.892Z,20.77
2022-07-31T21:02:07.942Z,20.75
2022-07-31T21:04:37.835Z,20.73
2022-07-31T21:07:10.163Z,20.73
2022-07-31T21:09:41.103Z,20.73
2022-07-31T21:12:11.955Z,20.73
2022-07-31T21:14:41.736Z,20.73
2022-07-31T21:17:11.483Z,20.72
2022-07-31T21:19:41.197Z,20.72
2022-07-31T21:22:13.496Z,20.69
2022-07-31T21:24:43.825Z,20.69
2022-07-31T21:27:15.246Z,20.66
2022-07-31T21:29:45.556Z,20.59
2022-07-31T21:32:16.408Z,20.57
2022-07-31T21:34:46.693Z,20.49
2022-07-31T21:37:20.148Z,20.47
2022-07-31T21:39:53.326Z,20.42
2022-07-31T21:42:23.855Z,20.41
2022-07-31T21:44:55.943Z,20.36
2022-07-31T21:47:27.233Z,20.36
2022-07-31T21:50:28.594Z,20.36
2022-07-31T21:53:01.535Z,20.32
2022-07-31T21:55:31.244Z,20.29
2022-07-31T21:58:00.962Z,20.31
2022-07-31T22:00:30.713Z,20.25
2022-07-31T22:03:00.455Z,20.25
2022-07-31T22:05:42.592Z,20.26
2022-07-31T22:08:16.106Z,20.20
2022-07-31T22:10:46.181Z,20.17
2022-07-31T22:13:15.928Z,20.17
2022-07-31T22:15:52.596Z,20.15
2022-07-31T22:18:31.032Z,20.16
2022-07-31T22:21:01.207Z,20.19
2022-07-31T22:23:34.170Z,20.23
2022-07-31T22:26:04.548Z,20.20
2022-07-31T22:28:34.833Z,20.17
2022-07-31T22:31:05.100Z,20.15
2022-07-31T22:33:34.973Z,20.14
2022-07-31T22:36:07.225Z,20.13
2022-07-31T22:38:39.996Z,20.15
2022-07-31T22:41:12.320Z,20.12
2022-07-31T22:44:14.095Z,20.15
2022-07-31T22:46:33.449Z,20.15
2022-07-31T22:49:04.880Z,20.17
2022-07-31T22:51:38.432Z,20.15
2022-07-31T22:54:11.288Z,20.21
2022-07-31T22:56:41.041Z,20.21
2022-07-31T22:59:10.773Z,20.18
2022-07-31T23:01:40.519Z,20.18
2022-07-31T23:04:10.231Z,20.20
2022-07-31T23:06:39.954Z,20.20
2022-07-31T23:09:12.304Z,20.14
2022-07-31T23:11:43.150Z,20.18
2022-07-31T23:14:13.109Z,20.16
2022-07-31T23:16:42.925Z,20.13
2022-07-31T23:19:12.824Z,20.15
2022-07-31T23:21:51.604Z,20.17
2022-07-31T23:24:23.960Z,20.13
2022-07-31T23:26:53.690Z,20.13
2022-07-31T23:29:23.461Z,20.10
2022-07-31T23:31:53.284Z,20.14
2022-07-31T23:34:23.009Z,20.14
2022-07-31T23:36:52.719Z,20.11
2022-07-31T23:39:25.068Z,20.04
2022-07-31T23:42:07.653Z,19.98
2022-07-31T23:44:39.807Z,19.89
2022-07-31T23:47:10.819Z,19.89
2022-07-31T23:49:45.688Z,19.86
2022-07-31T23:52:15.417Z,19.90
2022-07-31T23:54:47.782Z,19.85
2022-07-31T23:57:17.569Z,19.84
2022-07-31T23:59:47.289Z,19.83
